Time;durP1;ratioP1;P1;durP2;ratioP2;P2;SDS_P1;SDS_P2;PMS_P1;PMS_P2;Temp;Humidity;BMP_temperature;BMP_pressure;BME280_temperature;BME280_humidity;BME280_pressure;Samples;Min_cycle;Max_cycle;Signal;HPM_P1;HPM_P2
2022/05/13 00:02:12;;;;;;;5.60;3.65;;;;;;;16.11;60.58;101050.53;5008429;28;102487;-85
2022/05/13 00:04:39;;;;;;;4.10;3.43;;;;;;;16.10;60.88;101052.47;5001025;28;102258;-84
2022/05/13 00:07:06;;;;;;;5.30;3.50;;;;;;;16.10;60.82;101046.97;5007213;28;104393;-84
2022/05/13 00:10:18;;;;;;;4.55;3.50;;;;;;;16.10;60.53;101052.47;5013476;28;102175;-84
2022/05/13 00:12:19;;;;;;;3.95;3.60;;;;;;;16.10;60.71;101046.97;5008721;28;101940;-84
2022/05/13 00:14:48;;;;;;;5.90;3.70;;;;;;;16.11;60.70;101047.78;5012165;28;102649;-84
2022/05/13 00:17:15;;;;;;;4.22;3.45;;;;;;;16.12;60.96;101051.34;5014595;28;104021;-84
2022/05/13 00:19:45;;;;;;;5.05;3.45;;;;;;;16.10;60.56;101052.47;5015054;28;101944;-84
2022/05/13 00:22:12;;;;;;;4.80;3.85;;;;;;;16.10;60.68;101052.47;4998187;28;102334;-85
2022/05/13 00:24:39;;;;;;;3.83;3.42;;;;;;;16.11;60.81;101058.75;5005610;28;102155;-84
2022/05/13 00:27:06;;;;;;;3.50;3.20;;;;;;;16.11;60.92;101053.25;5014610;28;103786;-84
2022/05/13 00:29:34;;;;;;;3.88;3.50;;;;;;;16.10;61.07;101046.97;5015219;28;102007;-84
2022/05/13 00:32:03;;;;;;;3.55;3.25;;;;;;;16.12;60.59;101054.06;5006140;28;102979;-84
2022/05/13 00:34:31;;;;;;;6.43;3.75;;;;;;;16.12;60.56;101048.59;5016004;28;102207;-84
2022/05/13 00:36:57;;;;;;;4.72;3.30;;;;;;;16.10;60.65;101046.97;5005035;28;103910;-84
2022/05/13 00:39:24;;;;;;;3.80;3.40;;;;;;;16.11;60.69;101042.28;4995379;28;102487;-84
2022/05/13 00:41:50;;;;;;;3.88;3.20;;;;;;;16.10;60.94;101052.47;4994609;28;102307;-84
2022/05/13 00:44:17;;;;;;;4.00;3.40;;;;;;;16.08;61.08;101043.72;5006814;28;102214;-84
2022/05/13 00:46:43;;;;;;;4.35;3.63;;;;;;;16.11;60.66;101042.28;5014498;28;103877;-84
2022/05/13 00:49:14;;;;;;;4.53;3.47;;;;;;;16.09;61.04;101039.84;5015407;28;102039;-84
2022/05/13 00:51:43;;;;;;;7.45;3.70;;;;;;;16.10;60.96;101041.47;5014353;28;102123;-84
2022/05/13 00:54:12;;;;;;;;;;;;;;;16.10;61.05;101035.97;5010187;28;102395;-83
2022/05/13 00:56:42;;;;;;;4.60;3.33;;;;;;;16.10;60.68;101029.69;4994299;28;103842;-84
2022/05/13 00:59:13;;;;;;;6.88;3.33;;;;;;;16.09;60.79;101034.38;4995458;28;102031;-84
2022/05/13 01:01:40;;;;;;;3.90;3.50;;;;;;;16.10;61.05;101033.25;5000192;28;104059;-84
2022/05/13 01:04:10;;;;;;;6.20;3.65;;;;;;;16.10;61.06;101032.44;5012882;28;102521;-84
2022/05/13 01:06:41;;;;;;;7.70;3.05;;;;;;;16.10;60.74;101035.97;5013991;28;104025;-84
2022/05/13 01:09:07;;;;;;;5.43;3.17;;;;;;;16.09;61.03;101039.03;5009106;28;102219;-84
2022/05/13 01:11:37;;;;;;;3.58;3.25;;;;;;;16.09;60.75;101039.03;5000583;28;102279;-84
2022/05/13 01:14:07;;;;;;;5.10;3.20;;;;;;;16.10;61.01;101049.72;5015801;28;102778;-85
2022/05/13 01:18:05;;;;;;;5.72;3.45;;;;;;;16.10;60.84;101040.66;5012530;28;103851;-84
2022/05/13 01:19:20;;;;;;;4.28;3.60;;;;;;;16.10;61.05;101046.97;4994045;28;102114;-85
2022/05/13 01:21:50;;;;;;;7.03;3.55;;;;;;;16.09;60.88;101030.81;4994647;28;101941;-85
2022/05/13 01:24:19;;;;;;;6.28;3.55;;;;;;;16.09;60.90;101034.38;4995236;28;102515;-85
2022/05/13 01:26:47;;;;;;;3.58;3.28;;;;;;;16.09;61.19;101050.84;4993315;28;104065;-85
2022/05/13 01:29:13;;;;;;;3.45;3.15;;;;;;;16.10;61.11;101046.16;4994808;28;102164;-85
2022/05/13 01:31:43;;;;;;;3.80;3.40;;;;;;;16.10;61.02;101041.47;4994198;28;102320;-85
2022/05/13 01:34:12;;;;;;;4.38;3.80;;;;;;;16.08;61.16;101046.47;4999334;28;102185;-85
2022/05/13 01:36:40;;;;;;;3.90;3.33;;;;;;;16.09;61.44;101053.59;5013042;28;103966;-85
2022/05/13 01:39:09;;;;;;;8.23;3.93;;;;;;;16.09;60.86;101050.03;5015209;28;102577;-85
2022/05/13 01:41:36;;;;;;;15.02;4.38;;;;;;;16.08;61.24;101060.19;5003819;28;102461;-85
2022/05/13 01:44:03;;;;;;;15.25;4.45;;;;;;;16.08;60.95;101060.19;4995256;28;102330;-85
2022/05/13 01:46:31;;;;;;;8.57;3.70;;;;;;;16.08;60.91;101062.94;4999449;28;104392;-85
2022/05/13 01:48:57;;;;;;;6.78;3.58;;;;;;;16.09;61.13;101055.50;5008882;28;101922;-85
2022/05/13 01:51:26;;;;;;;13.52;3.47;;;;;;;16.07;61.16;101050.31;4994405;28;101953;-84
2022/05/13 01:53:54;;;;;;;10.85;3.83;;;;;;;16.08;61.00;101040.97;4999816;28;102597;-84
2022/05/13 01:56:23;;;;;;;15.32;4.13;;;;;;;16.09;61.49;101056.31;4999279;28;104111;-84
2022/05/13 01:58:50;;;;;;;8.23;3.50;;;;;;;16.09;61.01;101045.34;5005715;28;102500;-85
2022/05/13 02:01:17;;;;;;;14.98;4.05;;;;;;;16.08;61.42;101046.47;5006847;28;102181;-85
2022/05/13 02:03:44;;;;;;;13.57;3.97;;;;;;;16.08;61.11;101043.72;5003300;28;102245;-85
2022/05/13 02:06:13;;;;;;;10.90;3.70;;;;;;;16.09;61.28;101039.84;5007813;28;103942;-85
2022/05/13 02:08:43;;;;;;;10.07;3.97;;;;;;;16.08;61.04;101034.66;5003014;28;101875;-85
2022/05/13 02:11:11;;;;;;;17.33;4.38;;;;;;;16.08;61.13;101038.22;5002766;28;102554;-85
2022/05/13 02:13:41;;;;;;;21.20;4.13;;;;;;;16.09;61.22;101045.34;5001931;28;102605;-85
2022/05/13 02:16:09;;;;;;;21.08;3.65;;;;;;;16.08;61.45;101048.38;5011501;28;103304;-86
2022/05/13 02:18:37;;;;;;;16.02;4.22;;;;;;;16.08;61.12;101049.22;5013329;28;102525;-85
2022/05/13 02:21:04;;;;;;;14.65;4.43;;;;;;;16.08;61.30;101056.59;4997741;28;101886;-84
2022/05/13 02:23:30;;;;;;;13.00;4.20;;;;;;;16.08;61.57;101071.19;5003177;28;102153;-85
2022/05/13 02:26:01;;;;;;;10.23;3.70;;;;;;;16.08;61.04;101067.59;5008441;28;103877;-85
2022/05/13 02:28:30;;;;;;;7.78;3.88;;;;;;;16.07;61.19;101061.28;4995274;28;102640;-85
2022/05/13 02:30:59;;;;;;;8.20;3.63;;;;;;;16.07;61.02;101058.53;4995061;28;102015;-84
2022/05/13 02:33:25;;;;;;;9.35;3.90;;;;;;;16.06;61.43;101070.66;5000156;28;103254;-84
2022/05/13 02:35:52;;;;;;;6.85;3.65;;;;;;;16.07;61.09;101069.53;5013972;28;103853;-84
2022/05/13 02:38:19;;;;;;;10.30;3.88;;;;;;;16.07;61.09;101086.00;5014841;28;101825;-84
2022/05/13 02:43:32;;;;;;;6.57;3.58;;;;;;;16.07;61.56;101077.75;5016039;28;102594;-84
2022/05/13 02:46:01;;;;;;;5.67;3.60;;;;;;;16.06;61.29;101076.13;5014797;28;104058;-84
2022/05/13 02:48:27;;;;;;;9.30;4.35;;;;;;;16.06;61.44;101072.59;5002228;28;102066;-84
2022/05/13 02:50:54;;;;;;;9.05;3.67;;;;;;;16.07;61.53;101075.00;5016274;28;102306;-84
2022/05/13 02:53:21;;;;;;;9.93;3.83;;;;;;;16.06;61.59;101081.63;5008363;28;102639;-84
2022/05/13 02:55:48;;;;;;;4.95;3.60;;;;;;;16.06;61.45;101078.88;5016494;28;103960;-84
2022/05/13 02:58:15;;;;;;;6.00;3.40;;;;;;;16.06;61.24;101080.81;5016641;28;101972;-84
2022/05/13 03:00:44;;;;;;;7.75;3.92;;;;;;;16.05;61.19;101082.75;5016617;28;102017;-84
2022/05/13 03:03:14;;;;;;;3.85;3.42;;;;;;;16.06;61.33;101084.38;5017330;28;101930;-83
2022/05/13 03:05:42;;;;;;;5.38;3.40;;;;;;;16.06;61.43;101078.88;5013630;28;104083;-84
2022/05/13 03:08:09;;;;;;;5.55;3.58;;;;;;;16.05;61.18;101091.00;5006091;28;101997;-84
2022/05/13 03:10:37;;;;;;;4.45;3.50;;;;;;;16.05;61.58;101084.69;5016005;28;102571;-83
2022/05/13 03:13:06;;;;;;;5.32;3.60;;;;;;;16.06;61.55;101089.06;5015269;28;102138;-84
2022/05/13 03:15:37;;;;;;;7.28;3.47;;;;;;;16.05;61.29;101088.25;5013876;28;103968;-84
2022/05/13 03:18:05;;;;;;;5.65;3.80;;;;;;;16.05;61.40;101082.75;5014380;28;102249;-84
2022/05/13 03:20:33;;;;;;;4.45;3.13;;;;;;;16.05;61.24;101082.75;5012886;28;102409;-84
2022/05/13 03:23:00;;;;;;;7.15;3.13;;;;;;;16.07;61.09;101085.19;5012866;28;102385;-84
2022/05/13 03:25:26;;;;;;;8.25;3.60;;;;;;;16.06;61.24;101078.88;5008069;28;104069;-85
2022/05/13 03:27:54;;;;;;;4.95;3.47;;;;;;;16.06;61.17;101080.81;5008881;28;102846;-85
2022/05/13 03:30:23;;;;;;;7.90;3.60;;;;;;;16.06;61.62;101078.06;5002520;28;102336;-85
2022/05/13 03:32:51;;;;;;;5.65;3.35;;;;;;;16.06;61.53;101078.88;5008325;28;102139;-84
2022/05/13 03:35:19;;;;;;;5.47;3.08;;;;;;;16.06;61.39;101078.88;4991650;28;104059;-84
2022/05/13 03:37:47;;;;;;;3.60;2.90;;;;;;;16.06;61.10;101067.91;5003385;28;102508;-85
2022/05/13 03:40:17;;;;;;;3.50;3.20;;;;;;;16.07;61.46;101082.44;5012019;28;102333;-83
2022/05/13 03:42:44;;;;;;;6.78;3.08;;;;;;;16.07;61.24;101080.50;4994957;28;102166;-84
2022/05/13 03:45:13;;;;;;;4.70;2.92;;;;;;;16.07;61.14;101102.47;4992306;28;103922;-83
2022/05/13 03:47:41;;;;;;;5.63;2.88;;;;;;;16.07;61.07;101091.50;5001958;28;102210;-83
2022/05/13 03:50:09;;;;;;;4.95;2.90;;;;;;;16.08;61.15;101095.03;5013227;28;102464;-83
2022/05/13 03:52:36;;;;;;;5.68;3.08;;;;;;;16.08;61.32;101093.13;4996779;28;101996;-83
2022/05/13 03:55:06;;;;;;;6.13;3.08;;;;;;;16.08;61.24;101090.41;5006022;28;103888;-84
2022/05/13 03:57:32;;;;;;;5.78;2.88;;;;;;;16.08;60.99;101104.13;5010378;28;103961;-84
2022/05/13 04:00:00;;;;;;;6.32;3.08;;;;;;;16.08;61.35;101104.13;5010157;28;101980;-84
2022/05/13 04:02:28;;;;;;;4.47;3.00;;;;;;;16.09;61.36;101113.97;4999655;28;102362;-83
2022/05/13 04:10:27;;;;;;;3.28;2.97;;;;;;;16.10;61.51;101115.59;4994940;28;101973;-83
2022/05/13 04:18:25;;;;;;;4.20;3.33;;;;;;;16.12;61.16;101119.97;5000936;28;102624;-83
2022/05/13 04:20:52;;;;;;;3.85;2.70;;;;;;;16.14;61.32;101123.25;4994367;28;102495;-83
2022/05/13 04:23:19;;;;;;;4.10;3.38;;;;;;;16.13;61.47;101116.94;4995885;28;102204;-83
2022/05/13 04:25:47;;;;;;;3.92;3.20;;;;;;;16.15;61.04;101122.13;5002433;28;104079;-84
2022/05/13 04:28:13;;;;;;;3.43;3.13;;;;;;;16.14;61.12;101128.75;5000444;28;102489;-83
2022/05/13 04:30:40;;;;;;;5.25;3.25;;;;;;;16.14;61.62;101123.25;4995083;28;102019;-84
2022/05/13 04:33:11;;;;;;;3.55;2.95;;;;;;;16.15;61.46;101130.38;4995469;28;102060;-84
2022/05/13 04:35:38;;;;;;;3.00;2.80;;;;;;;16.15;61.52;101130.38;5000436;28;104188;-85
2022/05/13 04:38:04;;;;;;;4.43;2.95;;;;;;;16.15;60.97;101131.19;5003728;28;101885;-84
2022/05/13 04:40:32;;;;;;;3.22;2.80;;;;;;;16.17;61.36;101126.22;4994668;28;101857;-84
2022/05/13 04:43:01;;;;;;;4.55;2.90;;;;;;;16.16;61.28;101124.59;4995124;28;102622;-85
2022/05/13 04:45:29;;;;;;;3.60;2.72;;;;;;;16.16;61.41;101127.34;5001854;28;103954;-85
2022/05/13 04:50:46;;;;;;;3.35;3.05;;;;;;;16.18;61.14;101124.28;5013997;28;102006;-85
2022/05/13 04:53:13;;;;;;;3.75;2.95;;;;;;;16.18;61.45;101118.78;4995357;28;102220;-85
2022/05/13 04:55:40;;;;;;;3.58;3.28;;;;;;;16.19;61.47;101113.00;4993748;28;103770;-85
2022/05/13 04:58:08;;;;;;;4.15;3.28;;;;;;;16.20;61.52;101111.06;4994298;28;102382;-86
2022/05/13 05:00:35;;;;;;;4.60;3.00;;;;;;;16.20;61.41;101111.88;4996664;28;102692;-84
2022/05/13 05:03:02;;;;;;;3.95;3.28;;;;;;;16.22;61.00;101108.84;5000096;28;102647;-85
2022/05/13 05:05:28;;;;;;;3.47;3.17;;;;;;;16.23;61.06;101110.47;4993970;28;104136;-85
2022/05/13 05:07:56;;;;;;;3.50;3.20;;;;;;;16.23;61.41;101111.28;4999920;28;102080;-86
2022/05/13 05:10:23;;;;;;;3.85;2.97;;;;;;;16.24;61.24;101115.66;4994222;28;102034;-86
2022/05/13 05:12:53;;;;;;;5.40;3.45;;;;;;;16.26;61.27;101115.34;5012673;28;102256;-85
2022/05/13 05:15:21;;;;;;;4.50;3.30;;;;;;;16.25;61.11;101114.53;4994395;28;104565;-85
2022/05/13 05:17:49;;;;;;;3.55;3.25;;;;;;;16.27;61.23;101115.06;5002679;28;102745;-84
2022/05/13 05:20:15;;;;;;;4.43;3.15;;;;;;;16.29;60.86;101117.50;5013017;28;102246;-85
2022/05/13 05:22:44;;;;;;;3.70;3.30;;;;;;;16.29;60.90;101114.75;5001603;28;102683;-85
2022/05/13 05:25:11;;;;;;;4.15;3.05;;;;;;;16.30;61.26;101110.88;4993839;28;103961;-85
2022/05/13 05:27:41;;;;;;;3.78;3.08;;;;;;;16.31;61.02;101112.53;4994068;28;102819;-85
2022/05/13 05:30:09;;;;;;;3.33;3.03;;;;;;;16.33;60.98;101118.53;4993532;28;102003;-85
2022/05/13 05:32:39;;;;;;;3.20;2.90;;;;;;;16.33;61.30;101122.09;4994889;28;102464;-85
2022/05/13 05:35:07;;;;;;;5.65;3.30;;;;;;;16.35;60.93;101124.56;5008267;28;104016;-85
2022/05/13 05:37:33;;;;;;;3.88;3.15;;;;;;;16.37;61.27;101119.56;5008412;28;102588;-84
2022/05/13 05:40:02;;;;;;;3.60;3.30;;;;;;;16.39;61.33;101131.06;5009103;28;102370;-86
2022/05/13 05:42:28;;;;;;;3.00;2.80;;;;;;;16.40;61.11;101129.94;4998937;28;102141;-85
2022/05/13 05:44:55;;;;;;;3.97;3.50;;;;;;;16.41;61.24;101139.84;5002841;28;103933;-86
2022/05/13 05:47:22;;;;;;;4.15;3.40;;;;;;;16.42;60.86;101141.47;5005173;28;103738;-85
2022/05/13 05:49:51;;;;;;;3.47;3.08;;;;;;;16.44;61.13;101152.94;4995549;28;101995;-86
2022/05/13 05:52:17;;;;;;;3.38;3.05;;;;;;;16.44;61.25;101136.47;5007403;28;102402;-86
2022/05/13 05:57:29;;;;;;;3.60;3.28;;;;;;;16.47;60.86;101143.31;4997517;28;102217;-86
2022/05/13 05:59:56;;;;;;;4.15;3.08;;;;;;;16.48;61.35;101148.50;5007598;28;102641;-86
2022/05/13 06:02:22;;;;;;;3.80;3.05;;;;;;;16.49;60.77;101152.88;5014896;28;102540;-86
2022/05/13 06:04:50;;;;;;;4.43;3.05;;;;;;;16.50;61.19;101154.50;5001241;28;103836;-86
2022/05/13 06:07:17;;;;;;;2.65;2.45;;;;;;;16.51;60.74;101150.63;5007875;28;102445;-86
2022/05/13 06:09:44;;;;;;;3.40;3.08;;;;;;;16.52;60.86;101152.28;5010641;28;102541;-86
2022/05/13 06:12:12;;;;;;;4.03;3.20;;;;;;;16.53;60.83;101148.41;5003014;28;102262;-86
2022/05/13 06:14:39;;;;;;;3.20;2.90;;;;;;;16.54;60.67;101152.78;5001358;28;103897;-86
2022/05/13 06:17:06;;;;;;;3.63;2.70;;;;;;;16.55;61.18;101139.84;5000653;28;102079;-86
2022/05/13 06:19:33;;;;;;;4.55;3.22;;;;;;;16.57;61.24;101149.44;5000392;28;102501;-86
2022/05/13 06:22:01;;;;;;;4.43;3.17;;;;;;;16.57;61.22;101154.94;5003815;28;102555;-87
2022/05/13 06:24:29;;;;;;;3.50;3.20;;;;;;;16.60;61.13;101152.72;5007618;28;103301;-85
2022/05/13 06:26:56;;;;;;;3.78;3.15;;;;;;;16.61;60.92;101159.84;4996208;28;102102;-86
2022/05/13 06:29:25;;;;;;;3.00;2.70;;;;;;;16.60;61.20;101163.72;5012907;28;102080;-86
2022/05/13 06:31:53;;;;;;;3.25;2.95;;;;;;;16.62;60.89;101164.19;5000429;28;102129;-86
2022/05/13 06:34:22;;;;;;;3.30;3.00;;;;;;;16.63;60.84;101168.59;5003936;28;103818;-85
2022/05/13 06:36:50;;;;;;;3.92;2.97;;;;;;;16.64;60.67;101170.22;5010415;28;102327;-86
2022/05/13 06:39:18;;;;;;;4.75;3.67;;;;;;;16.65;61.26;101166.34;5011789;28;102503;-85
2022/05/13 06:41:45;;;;;;;3.85;2.85;;;;;;;16.65;60.83;101169.91;5013589;28;102936;-86
2022/05/13 06:44:15;;;;;;;3.20;2.88;;;;;;;16.67;60.61;101172.38;4993982;28;104510;-86
2022/05/13 06:46:41;;;;;;;3.38;2.80;;;;;;;16.68;60.63;101171.25;4994790;28;102251;-86
2022/05/13 06:49:11;;;;;;;5.20;3.40;;;;;;;16.68;60.78;101169.31;4996136;28;102308;-86
2022/05/13 06:51:37;;;;;;;;;;;;;;;16.70;60.88;101171.78;5009307;28;102426;-86
2022/05/13 06:54:06;;;;;;;3.33;3.00;;;;;;;16.71;60.71;101165.97;5014204;28;103901;-86
2022/05/13 06:56:38;;;;;;;3.55;3.20;;;;;;;16.72;60.72;101172.28;5000615;28;101959;-86
2022/05/13 06:59:06;;;;;;;4.15;3.50;;;;;;;16.73;60.63;101173.91;4994492;28;102305;-86
2022/05/13 07:01:34;;;;;;;3.35;2.97;;;;;;;16.74;60.59;101176.41;5004110;28;102553;-86
2022/05/13 07:04:01;;;;;;;4.65;3.35;;;;;;;16.75;61.12;101168.97;5013488;28;103997;-86
2022/05/13 07:06:28;;;;;;;3.50;3.15;;;;;;;16.76;60.65;101176.09;5004943;28;101945;-86
2022/05/13 07:08:54;;;;;;;3.72;3.00;;;;;;;16.77;60.87;101174.97;5006917;28;102363;-86
2022/05/13 07:11:21;;;;;;;5.03;3.13;;;;;;;16.78;60.75;101171.91;5011980;28;102710;-86
2022/05/13 07:13:49;;;;;;;4.70;3.17;;;;;;;16.78;60.95;101168.38;5007952;28;104086;-86
2022/05/13 07:16:16;;;;;;;;;;;;;;;16.79;60.60;101178.22;5007191;28;103848;-86
2022/05/13 07:18:43;;;;;;;3.58;2.97;;;;;;;16.80;60.89;101168.84;4998383;28;102100;-85
2022/05/13 07:21:09;;;;;;;4.55;3.38;;;;;;;16.80;61.00;101174.34;5015109;28;102331;-86
2022/05/13 07:23:36;;;;;;;4.75;3.50;;;;;;;16.81;60.67;101168.56;5013873;28;104027;-86
2022/05/13 07:26:03;;;;;;;4.20;2.97;;;;;;;16.83;60.78;101168.25;5016871;28;102296;-86
2022/05/13 07:28:29;;;;;;;4.43;3.40;;;;;;;16.82;60.62;101177.63;5016374;28;102424;-86
2022/05/13 07:31:00;;;;;;;3.80;3.45;;;;;;;16.85;60.51;101165.22;4999622;28;102411;-86
2022/05/13 07:33:29;;;;;;;3.88;3.30;;;;;;;16.85;60.56;101171.53;5014314;28;105059;-84
2022/05/13 07:35:56;;;;;;;5.53;3.30;;;;;;;16.86;60.88;101170.41;5008986;28;102728;-86
2022/05/13 07:38:23;;;;;;;4.22;3.53;;;;;;;16.88;60.64;101164.59;5009071;28;102481;-85
2022/05/13 07:43:36;;;;;;;3.42;3.13;;;;;;;16.89;61.05;101175.31;5007088;28;103878;-85
2022/05/13 07:46:06;;;;;;;3.67;3.35;;;;;;;16.90;60.97;101173.38;4999096;28;102466;-84
2022/05/13 07:48:34;;;;;;;3.50;3.20;;;;;;;16.91;61.17;101173.06;4997973;28;102821;-85
2022/05/13 07:51:00;;;;;;;4.50;3.42;;;;;;;16.91;60.66;101175.00;5000417;28;102084;-86
2022/05/13 07:53:26;;;;;;;3.38;3.08;;;;;;;16.92;60.85;101177.44;5009182;28;103839;-86
2022/05/13 07:55:54;;;;;;;3.40;3.10;;;;;;;16.92;60.55;101177.44;5013263;28;102965;-85
2022/05/13 07:58:22;;;;;;;7.27;3.67;;;;;;;16.93;60.87;101173.56;5004541;28;102132;-86
2022/05/13 08:00:49;;;;;;;3.90;2.92;;;;;;;16.93;61.05;101184.56;5014483;28;102426;-86
2022/05/13 08:03:17;;;;;;;3.30;3.00;;;;;;;16.94;60.97;101183.44;5015939;28;103954;-85
2022/05/13 08:05:45;;;;;;;;;;;;;;;16.95;60.98;101190.59;5015645;28;102817;-85
2022/05/13 08:08:14;;;;;;;4.30;3.60;;;;;;;16.95;60.90;101176.84;5013028;28;102452;-85
2022/05/13 08:10:43;;;;;;;;;;;;;;;16.95;60.58;101179.59;5020139;28;102261;-85
2022/05/13 08:13:09;;;;;;;5.47;3.50;;;;;;;16.96;60.62;101181.22;5019093;28;104078;-85
2022/05/13 08:15:36;;;;;;;5.80;3.95;;;;;;;16.98;60.90;101181.72;5017321;28;102444;-85
2022/05/13 08:18:04;;;;;;;4.75;3.55;;;;;;;16.98;60.46;101176.22;5010048;28;102502;-85
2022/05/13 08:20:32;;;;;;;3.53;3.22;;;;;;;16.98;60.92;101176.22;5008262;28;103771;-85
2022/05/13 08:22:59;;;;;;;5.38;3.47;;;;;;;16.99;60.62;101172.38;5011659;28;103901;-85
2022/05/13 08:25:26;;;;;;;3.75;3.30;;;;;;;16.98;60.48;101184.47;5000320;28;102457;-85
2022/05/13 08:27:53;;;;;;;4.30;3.10;;;;;;;17.00;60.61;101176.75;5001422;28;102534;-84
2022/05/13 08:30:21;;;;;;;3.60;3.30;;;;;;;17.02;60.87;101182.78;5009030;28;102184;-83
2022/05/13 08:32:48;;;;;;;3.87;3.50;;;;;;;17.02;60.52;101173.69;4996388;28;103996;-84
2022/05/13 08:35:15;;;;;;;3.55;3.25;;;;;;;17.03;60.65;101178.09;5002837;28;102183;-84
2022/05/13 08:37:45;;;;;;;4.20;3.40;;;;;;;17.04;60.61;101176.94;5007397;28;102439;-83
2022/05/13 08:40:24;;;;;;;4.10;3.70;;;;;;;17.05;60.95;101181.31;4998606;28;102412;-84
2022/05/13 08:42:52;;;;;;;3.83;3.30;;;;;;;17.04;60.44;101177.75;5003611;28;103959;-85
2022/05/13 08:45:21;;;;;;;3.30;3.00;;;;;;;17.05;60.82;101182.13;4997709;28;102125;-84
2022/05/13 08:47:51;;;;;;;5.88;3.72;;;;;;;17.05;60.67;101171.13;5005060;28;102261;-84
2022/05/13 08:50:25;;;;;;;5.20;3.20;;;;;;;17.07;60.85;101181.84;5012510;28;102730;-84
2022/05/13 08:53:08;;;;;;;3.88;3.47;;;;;;;17.07;60.48;101178.28;5006995;28;104159;-84
2022/05/13 08:55:42;;;;;;;4.60;3.28;;;;;;;17.07;60.76;101186.53;5000605;28;102635;-84
2022/05/13 08:58:17;;;;;;;6.40;3.72;;;;;;;17.08;60.57;101179.91;5005009;28;102319;-85
2022/05/13 09:00:47;;;;;;;5.22;3.60;;;;;;;17.08;60.42;101186.22;5013975;28;102229;-85
2022/05/13 09:03:26;;;;;;;3.95;3.17;;;;;;;17.09;60.87;101181.53;5011906;28;103668;-84
2022/05/13 09:05:59;;;;;;;6.03;3.97;;;;;;;17.10;61.03;101177.69;5015810;28;102137;-85
2022/05/13 09:08:27;;;;;;;4.53;3.33;;;;;;;17.10;60.69;101175.75;5012534;28;102151;-85
2022/05/13 09:11:02;;;;;;;4.03;3.60;;;;;;;17.10;60.68;101177.69;5011717;28;102208;-84
2022/05/13 09:13:37;;;;;;;3.90;3.53;;;;;;;17.11;60.89;101173.81;5011595;28;103818;-85
2022/05/13 09:16:07;;;;;;;4.32;3.50;;;;;;;17.12;60.84;101169.94;5009301;28;102195;-85
2022/05/13 09:18:35;;;;;;;4.97;4.13;;;;;;;17.10;61.02;101167.50;5001277;28;102380;-85
2022/05/13 09:21:05;;;;;;;5.03;3.92;;;;;;;17.11;60.76;101162.81;4993895;28;102250;-85
2022/05/13 09:23:33;;;;;;;3.72;3.42;;;;;;;17.12;60.90;101169.94;4994366;28;104180;-85
2022/05/13 09:26:04;;;;;;;4.10;3.27;;;;;;;17.12;60.46;101158.94;5009670;28;102048;-85
2022/05/13 09:28:35;;;;;;;7.75;3.35;;;;;;;17.13;60.70;101157.81;5013585;28;101956;-85
2022/05/13 09:31:19;;;;;;;3.70;3.40;;;;;;;17.12;60.83;101148.75;5014862;28;102155;-85
2022/05/13 09:33:47;;;;;;;6.45;4.15;;;;;;;17.12;60.38;101148.75;5008063;28;103833;-85
2022/05/13 09:36:34;;;;;;;3.97;3.65;;;;;;;17.12;60.80;101142.44;5008199;28;102050;-85
2022/05/13 09:39:18;;;;;;;3.65;3.35;;;;;;;17.12;60.35;101136.94;4992647;28;102005;-85
2022/05/13 09:41:45;;;;;;;4.88;3.42;;;;;;;17.12;60.91;101137.75;4994278;28;102610;-85
2022/05/13 09:44:14;;;;;;;3.72;3.42;;;;;;;17.12;60.46;101132.25;5000324;28;104033;-84
2022/05/13 09:46:42;;;;;;;4.28;3.67;;;;;;;17.13;60.45;101135.81;4993878;28;102373;-85
2022/05/13 09:49:16;;;;;;;4.10;3.67;;;;;;;17.12;60.72;101132.25;4991787;28;101912;-85
2022/05/13 09:51:54;;;;;;;4.20;3.80;;;;;;;17.12;60.56;101126.75;4994129;28;102447;-85
2022/05/13 09:54:26;;;;;;;4.43;3.80;;;;;;;17.12;60.74;101128.69;4992224;28;103834;-85
2022/05/13 09:57:05;;;;;;;6.53;4.22;;;;;;;17.12;60.58;101131.44;5002738;28;102508;-85
2022/05/13 09:59:38;;;;;;;5.20;3.97;;;;;;;17.11;60.36;101133.38;5007251;28;102074;-84
2022/05/13 10:02:23;;;;;;;4.90;4.05;;;;;;;17.11;60.58;101124.31;4997447;28;102135;-85
2022/05/13 10:04:53;;;;;;;4.30;3.88;;;;;;;17.11;60.85;101127.06;5004312;28;103904;-85
2022/05/13 10:07:23;;;;;;;5.82;4.10;;;;;;;17.11;60.85;101129.81;5006247;28;103903;-84
2022/05/13 10:15:32;;;;;;;4.07;3.67;;;;;;;17.10;60.70;101123.50;5006765;28;103995;-86
2022/05/13 10:18:05;;;;;;;3.97;3.58;;;;;;;17.10;60.63;101122.69;5008530;28;102548;-85
2022/05/13 10:20:36;;;;;;;4.30;3.90;;;;;;;17.11;60.80;101116.06;4997398;28;103937;-85
2022/05/13 10:23:10;;;;;;;3.90;3.30;;;;;;;17.10;60.41;101111.69;5002556;28;102778;-84
2022/05/13 10:25:51;;;;;;;7.60;3.85;;;;;;;17.11;60.89;101107.81;4996298;28;103953;-85
2022/05/13 10:28:22;;;;;;;4.95;4.28;;;;;;;17.10;60.35;101104.25;4994614;28;102535;-84
2022/05/13 10:30:51;;;;;;;5.68;3.67;;;;;;;17.11;60.27;101102.31;5004975;28;102443;-85
2022/05/13 10:33:25;;;;;;;4.35;3.53;;;;;;;17.11;60.73;101099.56;4993974;28;102221;-85
2022/05/13 10:35:57;;;;;;;3.97;3.60;;;;;;;17.10;60.43;101101.50;4991950;28;103785;-85
2022/05/13 10:38:29;;;;;;;4.68;4.28;;;;;;;17.11;60.81;101096.81;4995150;28;101992;-85
2022/05/13 10:41:07;;;;;;;4.00;3.60;;;;;;;17.10;60.53;101101.50;5004042;28;102463;-85
2022/05/13 10:43:40;;;;;;;6.00;3.85;;;;;;;17.11;60.93;101102.31;5006773;28;102344;-84
2022/05/13 10:46:21;;;;;;;6.82;4.22;;;;;;;17.11;60.64;101105.06;5000554;28;104036;-85
2022/05/13 10:48:51;;;;;;;4.47;4.07;;;;;;;17.12;60.86;101112.19;4997077;28;101919;-85
2022/05/13 10:51:23;;;;;;;5.07;3.80;;;;;;;17.11;60.86;101108.63;4997098;28;102301;-85
2022/05/13 10:54:25;;;;;;;6.30;4.35;;;;;;;17.12;60.73;101103.94;5008699;28;102400;-85
2022/05/13 10:57:03;;;;;;;6.07;4.30;;;;;;;17.11;60.98;101096.81;4982076;28;104137;-84
2022/05/13 10:59:53;;;;;;;5.97;4.47;;;;;;;17.12;60.78;101098.44;4993526;28;102105;-85
2022/05/13 11:02:57;;;;;;;4.55;3.97;;;;;;;17.11;61.03;101091.31;4998090;28;102101;-84
2022/05/13 11:05:35;;;;;;;4.18;3.80;;;;;;;17.11;60.76;101083.88;4998547;28;102648;-85
2022/05/13 11:08:15;;;;;;;6.10;4.07;;;;;;;17.12;60.61;101096.50;5000601;28;103811;-84
2022/05/13 11:10:55;;;;;;;5.03;4.13;;;;;;;17.12;60.91;101087.44;5002926;28;102036;-84
2022/05/13 11:13:41;;;;;;;5.20;4.20;;;;;;;17.12;60.73;101093.75;5001872;28;102597;-84
2022/05/13 11:16:17;;;;;;;4.78;4.03;;;;;;;17.12;60.68;101093.75;5006602;28;102328;-85
2022/05/13 11:18:53;;;;;;;4.68;4.03;;;;;;;17.13;60.93;101083.56;5010037;28;103860;-84
2022/05/13 11:21:34;;;;;;;4.97;4.10;;;;;;;17.13;60.69;101078.06;5008214;28;102371;-85
2022/05/13 11:27:07;;;;;;;5.53;4.38;;;;;;;17.13;60.67;101084.41;5001563;28;102252;-85
2022/05/13 11:29:44;;;;;;;4.63;4.22;;;;;;;17.13;60.83;101089.06;4992671;28;103996;-84
2022/05/13 11:32:22;;;;;;;4.97;4.47;;;;;;;17.14;60.55;101093.44;4995600;28;102345;-85
2022/05/13 11:35:14;;;;;;;8.47;4.77;;;;;;;17.13;60.75;101086.31;4997796;28;102516;-85
2022/05/13 11:37:46;;;;;;;5.55;4.78;;;;;;;17.13;61.02;101087.16;5013068;28;102608;-85
2022/05/13 11:40:24;;;;;;;7.30;4.60;;;;;;;17.14;61.02;101082.44;5007346;28;103931;-85
2022/05/13 11:43:20;;;;;;;6.85;4.75;;;;;;;17.13;60.97;101080.81;4999335;28;102435;-84
2022/05/13 11:46:13;;;;;;;7.00;4.90;;;;;;;17.13;60.61;101076.13;4993566;28;102439;-85
2022/05/13 11:48:43;;;;;;;6.13;5.28;;;;;;;17.13;60.79;101078.06;4994480;28;102174;-85
2022/05/13 11:51:15;;;;;;;5.38;4.88;;;;;;;17.13;60.91;101078.06;5004745;28;104148;-85
2022/05/13 11:53:48;;;;;;;5.32;4.70;;;;;;;17.12;61.10;101071.75;5006445;28;102257;-84
2022/05/13 11:56:29;;;;;;;5.13;4.30;;;;;;;17.13;60.59;101067.06;5011143;28;102048;-84
2022/05/13 11:58:57;;;;;;;4.85;4.45;;;;;;;17.13;61.01;101072.56;5001791;28;104086;-84
2022/05/13 12:02:05;;;;;;;7.47;4.90;;;;;;;17.12;60.56;101066.25;5006851;28;103979;-84